createdAt,value
2018-03-31T00:02:43.500Z,3.54
2018-03-31T00:08:44.011Z,4.35
2018-03-31T00:12:44.556Z,4.09
2018-03-31T00:14:45.029Z,3.8
2018-03-31T00:18:45.595Z,3.62
2018-03-31T00:24:46.169Z,3.52
2018-03-31T00:28:46.662Z,3.73
2018-03-31T00:34:47.261Z,2.7
2018-03-31T00:40:47.985Z,4.14
2018-03-31T00:44:48.475Z,3.35
2018-03-31T00:50:49.068Z,3.5
2018-03-31T00:54:49.528Z,4.2
2018-03-31T01:00:50.273Z,4.01
2018-03-31T01:06:50.851Z,2.64
2018-03-31T01:10:51.374Z,3.57
2018-03-31T01:16:51.940Z,3.29
2018-03-31T01:20:52.478Z,3.14
2018-03-31T01:26:53.019Z,4.09
2018-03-31T01:32:53.557Z,4.37
2018-03-31T01:36:54.024Z,2.98
2018-03-31T01:42:54.579Z,6.31
2018-03-31T01:46:55.165Z,3.19
2018-03-31T01:48:55.654Z,2.76
2018-03-31T01:52:56.257Z,3.16
2018-03-31T01:58:56.677Z,2.72
2018-03-31T02:02:57.328Z,3.27
2018-03-31T02:08:57.779Z,4.11
2018-03-31T02:12:58.577Z,3.01
2018-03-31T02:14:58.997Z,3.84
2018-03-31T02:18:59.572Z,4.05
2018-03-31T02:25:00.210Z,2.9
2018-03-31T02:29:00.790Z,5.44
2018-03-31T02:35:01.339Z,3.1
2018-03-31T02:39:01.889Z,2.63
2018-03-31T02:41:02.386Z,2.7
2018-03-31T02:45:02.952Z,3.74
2018-03-31T02:51:03.552Z,4.42
2018-03-31T02:55:04.240Z,5.3
2018-03-31T03:01:04.787Z,4.27
2018-03-31T03:07:05.410Z,4.32
2018-03-31T03:11:05.978Z,3.69
2018-03-31T03:17:06.508Z,3.05
2018-03-31T03:21:07.091Z,3.94
2018-03-31T03:27:07.680Z,6.01
2018-03-31T03:33:08.242Z,4.19
2018-03-31T03:37:08.785Z,3.92
2018-03-31T03:43:09.300Z,4.62
2018-03-31T03:47:09.871Z,5.02
2018-03-31T03:49:10.346Z,5.43
2018-03-31T03:53:10.819Z,4.55
2018-03-31T03:59:11.469Z,7.06
2018-03-31T04:03:11.950Z,6.1
2018-03-31T04:09:12.589Z,4.35
2018-03-31T04:13:13.160Z,4.16
2018-03-31T04:15:14.023Z,5.79
2018-03-31T04:19:14.564Z,5.91
2018-03-31T04:25:15.044Z,4.77
2018-03-31T04:29:15.613Z,5.31
2018-03-31T04:35:16.155Z,4.53
2018-03-31T04:39:16.669Z,4.47
2018-03-31T04:41:17.187Z,3.3
2018-03-31T04:45:18.037Z,5.1
2018-03-31T04:51:18.580Z,5.06
2018-03-31T04:55:19.128Z,5.99
2018-03-31T05:01:19.679Z,6.44
2018-03-31T05:07:20.302Z,8.17
2018-03-31T05:11:20.847Z,7.41
2018-03-31T05:17:21.554Z,5.7
2018-03-31T05:21:22.000Z,5.3
2018-03-31T05:27:22.556Z,5.03
2018-03-31T05:33:23.151Z,7.34
2018-03-31T05:37:23.689Z,6.09
2018-03-31T05:43:24.305Z,5.33
2018-03-31T05:47:24.785Z,7.03
2018-03-31T05:53:25.248Z,5.77
2018-03-31T05:59:25.868Z,5.21
2018-03-31T06:03:26.352Z,5.65
2018-03-31T06:09:26.846Z,3.76
2018-03-31T06:13:27.376Z,4.22
2018-03-31T06:15:28.556Z,4.38
2018-03-31T06:19:29.048Z,4.3
2018-03-31T06:25:29.659Z,4.33
2018-03-31T06:29:30.155Z,4.54
2018-03-31T06:35:30.649Z,4.1
2018-03-31T06:39:31.194Z,5.13
2018-03-31T06:41:31.744Z,4.35
2018-03-31T06:45:32.258Z,4.81
2018-03-31T06:51:32.784Z,2.49
2018-03-31T06:55:33.256Z,5.75
2018-03-31T07:01:33.845Z,3.38
2018-03-31T07:07:34.478Z,6.98
2018-03-31T07:11:35.009Z,6.44
2018-03-31T07:17:35.592Z,6.67
2018-03-31T07:21:36.043Z,5.17
2018-03-31T07:27:36.672Z,5.91
2018-03-31T07:33:37.242Z,5.1
2018-03-31T07:37:37.748Z,6
2018-03-31T07:43:38.381Z,7.43
2018-03-31T07:47:38.883Z,7.48
2018-03-31T07:53:39.372Z,5.52
2018-03-31T07:59:39.873Z,5.84
2018-03-31T08:03:40.568Z,6.22
2018-03-31T08:09:41.001Z,5.12
2018-03-31T08:13:41.535Z,3.08
2018-03-31T08:15:42.001Z,3.15
2018-03-31T08:19:42.556Z,2.94
2018-03-31T08:25:43.113Z,3.15
2018-03-31T08:29:43.711Z,2.19
2018-03-31T08:35:44.244Z,2.81
2018-03-31T08:39:44.709Z,2.91
2018-03-31T08:41:45.351Z,2.19
2018-03-31T08:45:45.785Z,3.08
2018-03-31T08:51:46.315Z,2.52
2018-03-31T08:55:46.841Z,2.98
2018-03-31T09:01:47.392Z,3.74
2018-03-31T09:07:47.867Z,2.19
2018-03-31T09:11:48.548Z,2.66
2018-03-31T09:17:49.191Z,4.44
2018-03-31T09:21:49.633Z,3.74
2018-03-31T09:27:50.124Z,4.11
2018-03-31T09:33:50.636Z,3.27
2018-03-31T09:37:51.177Z,3.02
2018-03-31T09:43:51.717Z,3.52
2018-03-31T09:47:52.217Z,4.2
2018-03-31T09:53:52.815Z,3.19
2018-03-31T09:59:53.266Z,3.49
2018-03-31T10:03:53.829Z,4.54
2018-03-31T10:09:54.401Z,4.49
2018-03-31T10:13:54.997Z,5.46
2018-03-31T10:15:55.394Z,4.15
2018-03-31T10:19:55.962Z,3.96
2018-03-31T10:25:57.001Z,3.32
2018-03-31T10:29:57.690Z,4.2
2018-03-31T10:35:58.396Z,3.59
2018-03-31T10:39:59.068Z,3.65
2018-03-31T10:41:59.451Z,5.13
2018-03-31T10:46:00.010Z,6.19
2018-03-31T10:52:00.659Z,4.21
2018-03-31T10:56:01.170Z,5.24
2018-03-31T11:02:01.705Z,3.54
2018-03-31T11:06:02.210Z,4.78
2018-03-31T11:08:02.702Z,4.54
2018-03-31T11:12:03.360Z,3.96
2018-03-31T11:18:03.787Z,5.29
2018-03-31T11:22:04.277Z,3.57
2018-03-31T11:28:04.810Z,3.74
2018-03-31T11:34:05.314Z,3.47
2018-03-31T11:38:05.892Z,2.85
2018-03-31T11:44:06.354Z,4.05
2018-03-31T11:48:06.999Z,2.45
2018-03-31T11:54:07.593Z,1.99
2018-03-31T12:00:08.303Z,2.63
2018-03-31T12:04:08.799Z,2.45
2018-03-31T12:10:09.352Z,3.22
2018-03-31T12:14:09.885Z,2.16
2018-03-31T12:20:10.389Z,2.03
2018-03-31T12:26:10.868Z,1.97
2018-03-31T12:30:11.670Z,2.52
2018-03-31T12:36:12.168Z,2.14
2018-03-31T12:40:12.706Z,2.37
2018-03-31T12:42:13.669Z,2.33
2018-03-31T12:46:14.095Z,2.02
2018-03-31T12:52:14.678Z,2.4
2018-03-31T12:56:15.271Z,2.34
2018-03-31T13:02:15.910Z,2.32
2018-03-31T13:06:16.407Z,2.25
2018-03-31T13:08:16.808Z,2.59
2018-03-31T13:12:17.276Z,2.26
2018-03-31T13:18:17.746Z,1.67
2018-03-31T13:22:18.315Z,2.78
2018-03-31T13:28:18.808Z,2.69
2018-03-31T13:34:19.321Z,2.55
2018-03-31T13:38:19.833Z,2.14
2018-03-31T13:44:20.347Z,2.78
2018-03-31T13:48:20.809Z,2.02
2018-03-31T13:54:21.274Z,2.04
2018-03-31T14:00:22.196Z,2.17
2018-03-31T14:04:22.834Z,3.05
2018-03-31T14:10:23.511Z,2.34
2018-03-31T14:14:24.450Z,2.02
2018-03-31T14:20:25.164Z,2.11
2018-03-31T14:26:25.856Z,2.14
2018-03-31T14:30:26.945Z,2.07
2018-03-31T14:36:27.607Z,2.47
2018-03-31T14:40:28.159Z,2.31
2018-03-31T14:42:28.618Z,3.35
2018-03-31T14:46:29.113Z,2.33
2018-03-31T14:52:29.700Z,2.61
2018-03-31T14:56:30.368Z,2.24
2018-03-31T15:02:30.880Z,2.53
2018-03-31T15:06:31.456Z,2.79
2018-03-31T15:08:31.976Z,2.95
2018-03-31T15:12:32.589Z,2.83
2018-03-31T15:18:33.195Z,2.86
2018-03-31T15:22:33.783Z,2.44
2018-03-31T15:28:34.234Z,3.99
2018-03-31T15:32:34.781Z,2.65
2018-03-31T15:34:35.325Z,3.03
2018-03-31T15:38:35.878Z,4.13
2018-03-31T15:44:36.399Z,2.23
2018-03-31T15:48:36.953Z,2.24
2018-03-31T15:54:37.515Z,3.23
2018-03-31T16:00:38.875Z,2.47
2018-03-31T16:04:39.453Z,2.95
2018-03-31T16:10:39.991Z,2.81
2018-03-31T16:14:40.539Z,3
2018-03-31T16:20:41.311Z,3.04
2018-03-31T16:26:41.888Z,3.05
2018-03-31T16:30:42.592Z,3.89
2018-03-31T16:36:43.217Z,3.51
2018-03-31T16:40:43.793Z,3.64
2018-03-31T16:46:44.375Z,2.72
2018-03-31T16:52:44.875Z,2.56
2018-03-31T16:56:45.406Z,2.62
2018-03-31T17:02:46.014Z,3.46
2018-03-31T17:06:46.534Z,2.86
2018-03-31T17:08:46.970Z,3.32
2018-03-31T17:12:47.520Z,3.53
2018-03-31T17:18:48.024Z,2.8
2018-03-31T17:22:48.614Z,2.69
2018-03-31T17:28:49.199Z,2.87
2018-03-31T17:32:49.703Z,3.42
2018-03-31T17:34:50.235Z,2.91
2018-03-31T17:38:50.830Z,4.84
2018-03-31T17:44:51.361Z,3.59
2018-03-31T17:48:51.882Z,3.76
2018-03-31T17:54:52.398Z,4.13
2018-03-31T18:00:53.072Z,4.09
2018-03-31T18:04:53.613Z,3.49
2018-03-31T18:10:53.994Z,4.23
2018-03-31T18:14:54.509Z,4.5
2018-03-31T18:20:55.091Z,5.35
2018-03-31T18:26:55.539Z,3.05
2018-03-31T18:30:56.084Z,4.69
2018-03-31T18:36:56.594Z,7
2018-03-31T18:40:57.158Z,7.38
2018-03-31T18:46:57.922Z,5.66
2018-03-31T18:52:58.643Z,3.75
2018-03-31T18:56:59.154Z,4.02
2018-03-31T19:02:59.841Z,3.95
2018-03-31T19:07:00.520Z,4.42
2018-03-31T19:09:01.055Z,4.25
2018-03-31T19:13:01.574Z,4.21
2018-03-31T19:19:02.129Z,5.87
2018-03-31T19:23:02.701Z,3.71
2018-03-31T19:29:03.334Z,4.09
2018-03-31T19:33:03.940Z,3.49
2018-03-31T19:35:04.404Z,3.91
2018-03-31T19:39:04.908Z,3.05
2018-03-31T19:45:05.473Z,3.22
2018-03-31T19:49:05.975Z,2.39
2018-03-31T19:55:06.410Z,4.31
2018-03-31T19:59:06.900Z,4.27
2018-03-31T20:01:07.378Z,3.88
2018-03-31T20:05:07.881Z,4.3
2018-03-31T20:11:08.374Z,2.93
2018-03-31T20:15:09.263Z,3.17
2018-03-31T20:21:09.785Z,5.25
2018-03-31T20:27:10.357Z,3.45
2018-03-31T20:31:10.902Z,3.51
2018-03-31T20:37:11.385Z,4.77
2018-03-31T20:41:11.913Z,3.39
2018-03-31T20:47:12.468Z,4.13
2018-03-31T20:53:13.050Z,3.98
2018-03-31T20:57:13.601Z,3.9
2018-03-31T21:03:14.205Z,2.44
2018-03-31T21:07:14.702Z,4.51
2018-03-31T21:09:15.165Z,4.99
2018-03-31T21:13:15.710Z,2.43
2018-03-31T21:19:16.274Z,3.78
2018-03-31T21:23:16.891Z,4.44
2018-03-31T21:29:17.511Z,7.91
2018-03-31T21:33:18.105Z,4.98
2018-03-31T21:35:18.697Z,7.41
2018-03-31T21:39:19.299Z,4.51
2018-03-31T21:45:20.052Z,2.57
2018-03-31T21:49:20.634Z,2.3
2018-03-31T21:55:21.134Z,2.11
2018-03-31T21:59:21.594Z,3.08
2018-03-31T22:01:22.123Z,4.66
2018-03-31T22:05:22.739Z,4.52
2018-03-31T22:11:23.247Z,3.81
2018-03-31T22:15:24.237Z,3.52
2018-03-31T22:21:24.840Z,2.36
2018-03-31T22:27:25.327Z,3.5
2018-03-31T22:31:25.810Z,2.72
2018-03-31T22:37:26.233Z,4.03
2018-03-31T22:41:26.675Z,2.51
2018-03-31T22:47:27.182Z,2.85
2018-03-31T22:53:27.816Z,2.83
2018-03-31T22:57:28.269Z,2.78
2018-03-31T23:03:28.781Z,2.61
2018-03-31T23:07:30.002Z,4.31
2018-03-31T23:13:31.293Z,4.79
2018-03-31T23:19:32.542Z,5.81
2018-03-31T23:23:33.853Z,5.12
2018-03-31T23:29:35.092Z,2.58
2018-03-31T23:33:36.321Z,2.77
2018-03-31T23:39:37.565Z,2.42
2018-03-31T23:45:38.860Z,2.04
2018-03-31T23:49:40.099Z,3.13
2018-03-31T23:55:41.352Z,2.82
2018-03-31T23:59:42.667Z,2.88
